Time;durP1;ratioP1;P1;durP2;ratioP2;P2;SDS_P1;SDS_P2;PMS_P1;PMS_P2;Temp;Humidity;BMP_temperature;BMP_pressure;BME280_temperature;BME280_humidity;BME280_pressure;Samples;Min_cycle;Max_cycle;Signal;HPM_P1;HPM_P2
2021/11/10 00:01:44;;;;;;;3.15;1.80;;;15.10;96.70;;;;;;5089947;28;20109;-78
2021/11/10 00:04:13;;;;;;;2.80;1.73;;;15.10;96.70;;;;;;5097979;28;20274;-77
2021/11/10 00:06:41;;;;;;;2.38;1.30;;;15.20;96.70;;;;;;5084830;28;20463;-77
2021/11/10 00:09:11;;;;;;;3.25;1.75;;;15.10;96.70;;;;;;5101651;28;20087;-77
2021/11/10 00:11:40;;;;;;;2.13;1.40;;;15.00;96.70;;;;;;5099071;28;20063;-78
2021/11/10 00:14:08;;;;;;;3.17;1.77;;;15.10;96.70;;;;;;5095888;28;20036;-77
2021/11/10 00:16:37;;;;;;;4.50;1.80;;;15.10;96.70;;;;;;5098882;28;20047;-77
2021/11/10 00:19:05;;;;;;;3.20;1.40;;;15.00;96.70;;;;;;5110071;27;20085;-77
2021/11/10 00:21:34;;;;;;;2.90;1.50;;;15.10;96.70;;;;;;5096446;28;20044;-78
2021/11/10 00:24:03;;;;;;;3.65;1.85;;;15.10;96.70;;;;;;5093499;27;20044;-78
2021/11/10 00:26:34;;;;;;;4.72;1.98;;;15.00;96.70;;;;;;5100652;27;20049;-78
2021/11/10 00:29:02;;;;;;;3.80;1.80;;;15.00;96.70;;;;;;5097732;28;20043;-77
2021/11/10 00:31:34;;;;;;;3.38;1.65;;;15.10;96.70;;;;;;5110068;27;20440;-78
2021/11/10 00:34:03;;;;;;;4.13;1.88;;;15.10;96.70;;;;;;5078629;28;20587;-77
2021/11/10 00:36:31;;;;;;;2.75;1.70;;;15.10;96.70;;;;;;5096619;27;21336;-77
2021/11/10 00:39:00;;;;;;;2.55;1.70;;;15.20;96.70;;;;;;5095439;28;20040;-77
2021/11/10 00:41:28;;;;;;;3.40;1.80;;;15.20;96.70;;;;;;5100177;28;20493;-77
2021/11/10 00:44:02;;;;;;;3.67;1.73;;;15.20;96.70;;;;;;5096001;28;20051;-77
2021/11/10 00:46:31;;;;;;;3.60;1.98;;;15.20;96.70;;;;;;5099026;28;20040;-77
2021/11/10 00:49:00;;;;;;;2.80;1.30;;;15.20;96.70;;;;;;5081965;28;20139;-77
2021/11/10 00:51:31;;;;;;;3.58;1.85;;;15.20;96.70;;;;;;5097766;28;20038;-77
2021/11/10 00:54:00;;;;;;;3.17;1.67;;;15.20;96.70;;;;;;5079637;28;20035;-77
2021/11/10 00:56:28;;;;;;;2.90;1.52;;;15.20;96.70;;;;;;5100174;28;20154;-77
2021/11/10 00:58:59;;;;;;;2.75;1.67;;;15.20;96.70;;;;;;5106774;27;20129;-77
2021/11/10 01:01:28;;;;;;;2.90;1.63;;;15.20;96.70;;;;;;5092213;27;20044;-78
2021/11/10 01:03:56;;;;;;;3.15;1.75;;;15.20;96.70;;;;;;5097021;27;20226;-77
2021/11/10 01:06:25;;;;;;;3.53;1.90;;;15.20;96.70;;;;;;5099425;27;20126;-79
2021/11/10 01:08:54;;;;;;;4.85;2.22;;;15.20;96.70;;;;;;5097838;28;20047;-77
2021/11/10 01:11:23;;;;;;;2.83;1.80;;;15.20;96.70;;;;;;5098285;27;20138;-77
2021/11/10 01:13:51;;;;;;;4.18;1.70;;;15.20;96.70;;;;;;5095652;27;20074;-78
2021/11/10 01:16:22;;;;;;;4.13;1.80;;;15.20;96.70;;;;;;5098408;28;20039;-77
2021/11/10 01:18:52;;;;;;;3.60;1.75;;;15.20;96.70;;;;;;5094719;28;20085;-76
2021/11/10 01:21:25;;;;;;;3.65;1.98;;;15.10;96.70;;;;;;5089882;28;20044;-76
2021/11/10 01:23:53;;;;;;;4.10;2.10;;;15.10;96.70;;;;;;5090457;28;20097;-79
2021/11/10 01:26:22;;;;;;;3.60;2.40;;;15.10;96.70;;;;;;5080168;28;21082;-78
2021/11/10 01:28:50;;;;;;;3.67;2.17;;;15.00;96.70;;;;;;5095249;28;20070;-78
2021/11/10 01:31:21;;;;;;;2.63;2.03;;;15.00;96.70;;;;;;5095318;28;20032;-79
2021/11/10 01:33:50;;;;;;;4.00;1.67;;;15.10;96.70;;;;;;5098456;27;20040;-78
2021/11/10 01:36:19;;;;;;;3.40;1.63;;;15.20;96.70;;;;;;5095084;28;20492;-78
2021/11/10 01:38:47;;;;;;;2.90;1.70;;;15.10;96.70;;;;;;5093115;28;20096;-79
2021/11/10 01:41:17;;;;;;;4.57;2.15;;;15.10;96.70;;;;;;5095420;28;20048;-79
2021/11/10 01:43:46;;;;;;;3.95;2.20;;;15.10;96.70;;;;;;5080235;28;20058;-79
2021/11/10 01:46:14;;;;;;;3.47;2.20;;;15.10;96.70;;;;;;5105643;27;20035;-78
2021/11/10 01:48:44;;;;;;;2.70;1.70;;;15.10;96.70;;;;;;5081769;28;20448;-79
2021/11/10 01:51:13;;;;;;;3.22;1.77;;;15.10;96.70;;;;;;5091396;28;20314;-78
2021/11/10 01:53:41;;;;;;;4.22;1.70;;;15.10;96.70;;;;;;5102478;28;20754;-78
2021/11/10 01:56:10;;;;;;;3.95;1.80;;;15.00;96.70;;;;;;5088154;28;20455;-78
2021/11/10 01:58:38;;;;;;;2.30;1.73;;;15.10;96.70;;;;;;5094154;28;20051;-78
2021/11/10 02:01:06;;;;;;;2.30;1.98;;;15.00;96.70;;;;;;5083536;28;20510;-78
2021/11/10 02:03:35;;;;;;;3.95;2.45;;;15.00;96.70;;;;;;5073814;28;20078;-78
2021/11/10 02:06:18;;;;;;;3.47;1.67;;;15.00;96.70;;;;;;5095034;28;20071;-79
2021/11/10 02:08:53;;;;;;;3.13;1.83;;;15.10;96.70;;;;;;5094922;28;20547;-78
2021/11/10 02:11:26;;;;;;;2.45;1.73;;;15.10;96.70;;;;;;5091413;28;20040;-78
2021/11/10 02:14:01;;;;;;;3.40;1.80;;;15.10;96.70;;;;;;5096422;28;20392;-78
2021/11/10 02:16:29;;;;;;;2.53;1.40;;;15.10;96.70;;;;;;5114470;28;20151;-78
2021/11/10 02:19:00;;;;;;;2.90;1.90;;;15.10;96.70;;;;;;5092050;28;20407;-78
2021/11/10 02:21:32;;;;;;;3.25;1.83;;;15.10;96.70;;;;;;5078727;28;20536;-79
2021/11/10 02:24:00;;;;;;;4.75;1.80;;;15.00;96.70;;;;;;5097551;28;20058;-79
2021/11/10 02:26:28;;;;;;;3.38;1.73;;;15.00;96.70;;;;;;5097021;28;20370;-79
2021/11/10 02:28:56;;;;;;;2.88;1.98;;;15.00;96.70;;;;;;5095235;28;20032;-79
2021/11/10 02:31:28;;;;;;;2.45;1.48;;;15.00;96.70;;;;;;5091832;28;20104;-79
2021/11/10 02:33:59;;;;;;;2.45;1.50;;;15.00;96.70;;;;;;5098411;27;20044;-79
2021/11/10 02:36:28;;;;;;;3.65;1.90;;;15.00;96.70;;;;;;5099258;28;20148;-79
2021/11/10 02:38:59;;;;;;;3.53;1.90;;;15.00;96.70;;;;;;5098145;28;20078;-79
2021/11/10 02:41:29;;;;;;;3.40;2.00;;;15.00;96.70;;;;;;5100623;27;20040;-79
2021/11/10 02:43:57;;;;;;;5.35;1.60;;;15.10;96.70;;;;;;5100537;27;20135;-79
2021/11/10 02:46:26;;;;;;;2.83;1.73;;;15.10;96.70;;;;;;5083146;28;20048;-79
2021/11/10 02:48:54;;;;;;;2.92;1.63;;;15.20;96.70;;;;;;5097823;27;20048;-79
2021/11/10 02:51:22;;;;;;;3.08;1.90;;;15.10;96.70;;;;;;5103318;28;20043;-79
2021/11/10 02:53:51;;;;;;;3.42;2.03;;;15.10;96.70;;;;;;5093573;28;20044;-79
2021/11/10 02:56:21;;;;;;;3.13;1.83;;;15.00;96.70;;;;;;5103398;28;20040;-79
2021/11/10 02:58:50;;;;;;;3.25;1.88;;;15.00;96.70;;;;;;5077918;28;20058;-79
2021/11/10 03:01:19;;;;;;;3.92;2.00;;;14.90;96.70;;;;;;5096958;28;20072;-79
2021/11/10 03:03:48;;;;;;;3.17;1.65;;;15.00;96.70;;;;;;5080543;28;20605;-79
2021/11/10 03:06:16;;;;;;;2.85;1.60;;;15.00;96.70;;;;;;5086239;28;20055;-79
2021/11/10 03:08:45;;;;;;;3.90;1.80;;;15.00;96.70;;;;;;5095346;28;20048;-79
2021/11/10 03:11:16;;;;;;;2.88;1.58;;;15.10;96.70;;;;;;5095358;27;20471;-80
2021/11/10 03:13:48;;;;;;;5.00;2.10;;;15.00;96.70;;;;;;5084799;28;20491;-79
2021/11/10 03:16:16;;;;;;;3.50;1.63;;;15.00;96.70;;;;;;5085657;28;20044;-79
2021/11/10 03:18:44;;;;;;;2.17;1.40;;;15.00;96.70;;;;;;5083213;28;20120;-79
2021/11/10 03:21:13;;;;;;;4.25;1.67;;;15.10;96.70;;;;;;5085668;28;20047;-79
2021/11/10 03:23:41;;;;;;;3.10;1.85;;;15.00;96.70;;;;;;5099387;28;20071;-79
2021/11/10 03:26:09;;;;;;;3.45;1.70;;;15.00;96.70;;;;;;5102158;28;20039;-80
2021/11/10 03:28:39;;;;;;;5.45;2.10;;;15.00;96.70;;;;;;5097946;28;20048;-79
2021/11/10 03:31:08;;;;;;;4.57;1.80;;;15.00;96.70;;;;;;5080753;28;20046;-79
2021/11/10 03:33:39;;;;;;;3.33;1.98;;;15.00;96.70;;;;;;5093941;27;20048;-80
2021/11/10 03:36:08;;;;;;;3.08;1.83;;;15.10;96.70;;;;;;5096973;28;20477;-80
2021/11/10 03:38:38;;;;;;;4.30;1.60;;;15.10;96.70;;;;;;5083180;28;20067;-79
2021/11/10 03:41:09;;;;;;;2.38;1.35;;;15.00;96.70;;;;;;5081414;28;20067;-80
2021/11/10 03:43:37;;;;;;;3.90;1.65;;;15.00;96.70;;;;;;5099638;28;20532;-79
2021/11/10 03:46:06;;;;;;;3.50;1.50;;;15.00;96.70;;;;;;5096206;28;20039;-79
2021/11/10 03:48:37;;;;;;;5.07;2.05;;;15.00;96.70;;;;;;5094125;28;20104;-79
2021/11/10 03:51:06;;;;;;;3.40;1.60;;;15.00;96.70;;;;;;5097265;28;20052;-80
2021/11/10 03:53:37;;;;;;;3.10;1.55;;;15.00;96.70;;;;;;5099438;27;20044;-80
2021/11/10 03:56:06;;;;;;;3.05;1.80;;;15.00;96.70;;;;;;5097146;27;20363;-79
2021/11/10 03:58:35;;;;;;;3.85;1.77;;;15.10;96.70;;;;;;5092570;28;20044;-79
2021/11/10 04:01:04;;;;;;;4.72;2.00;;;15.10;96.70;;;;;;5098391;28;20043;-80
2021/11/10 04:03:34;;;;;;;3.15;1.95;;;15.00;96.70;;;;;;5097687;27;20036;-79
2021/11/10 04:06:08;;;;;;;5.10;1.80;;;15.00;96.70;;;;;;5096747;27;20051;-79
2021/11/10 04:08:40;;;;;;;3.47;1.90;;;15.00;96.70;;;;;;5095781;28;20037;-79
2021/11/10 04:11:09;;;;;;;3.65;1.83;;;15.00;96.70;;;;;;5084399;28;20047;-79
2021/11/10 04:13:39;;;;;;;4.03;2.03;;;15.10;96.70;;;;;;5083669;28;20063;-79
2021/11/10 04:16:07;;;;;;;3.53;1.88;;;15.10;96.70;;;;;;5083775;28;20073;-80
2021/11/10 04:18:35;;;;;;;3.50;2.00;;;15.10;96.70;;;;;;5098836;28;20134;-80
2021/11/10 04:21:14;;;;;;;6.13;2.33;;;15.10;96.70;;;;;;5091150;28;20038;-79
2021/11/10 04:23:43;;;;;;;2.97;1.70;;;15.10;96.70;;;;;;5100195;28;20056;-79
2021/11/10 04:26:13;;;;;;;3.58;1.88;;;15.10;96.70;;;;;;5099973;28;20122;-79
2021/11/10 04:28:42;;;;;;;3.92;1.58;;;15.20;96.70;;;;;;5097979;28;20539;-78
2021/11/10 04:31:10;;;;;;;6.03;2.15;;;15.20;96.70;;;;;;5075408;27;20035;-78
2021/11/10 04:33:42;;;;;;;3.45;2.20;;;15.20;96.70;;;;;;5098920;28;20412;-79
2021/11/10 04:36:12;;;;;;;3.65;2.08;;;15.20;96.70;;;;;;5099784;28;20043;-79
2021/11/10 04:38:45;;;;;;;3.53;2.38;;;15.10;96.70;;;;;;5095469;28;20059;-78
2021/11/10 04:41:15;;;;;;;3.13;1.80;;;15.10;96.70;;;;;;5100265;27;20036;-78
2021/11/10 04:43:44;;;;;;;2.70;1.58;;;15.00;96.70;;;;;;5107788;27;20063;-78
2021/11/10 04:48:44;;;;;;;3.63;2.00;;;15.00;96.70;;;;;;5094738;27;20166;-78
2021/11/10 04:51:14;;;;;;;3.78;1.95;;;15.00;96.70;;;;;;5081637;27;20725;-78
2021/11/10 04:53:47;;;;;;;3.90;1.85;;;15.00;96.70;;;;;;5093950;28;20050;-78
2021/11/10 04:56:16;;;;;;;4.40;2.15;;;15.00;96.70;;;;;;5095902;27;20063;-79
2021/11/10 04:58:44;;;;;;;5.63;2.53;;;15.00;96.70;;;;;;5096028;28;20059;-78
2021/11/10 05:01:26;;;;;;;6.95;3.30;;;15.00;96.70;;;;;;5099897;27;20040;-78
2021/11/10 05:04:00;;;;;;;;;;;14.90;96.70;;;;;;5097038;28;20610;-79
2021/11/10 05:06:29;;;;;;;4.82;2.33;;;14.90;96.70;;;;;;5099222;27;20338;-79
2021/11/10 05:09:00;;;;;;;3.33;2.08;;;15.00;96.70;;;;;;5080545;28;20156;-79
2021/11/10 05:11:28;;;;;;;4.80;2.22;;;15.00;96.70;;;;;;5094735;28;20080;-79
2021/11/10 05:13:58;;;;;;;9.93;5.30;;;15.00;96.70;;;;;;5093533;27;20052;-79
2021/11/10 05:16:27;;;;;;;6.82;3.42;;;15.00;96.70;;;;;;5101415;27;20126;-79
2021/11/10 05:18:58;;;;;;;4.20;2.30;;;15.00;96.70;;;;;;5097310;28;20067;-78
2021/11/10 05:21:27;;;;;;;5.80;2.47;;;15.00;96.70;;;;;;5094371;28;20508;-78
2021/11/10 05:23:55;;;;;;;5.10;2.20;;;15.00;96.70;;;;;;5077600;28;20071;-79
2021/11/10 05:26:25;;;;;;;4.22;2.30;;;15.10;96.70;;;;;;5095941;27;20052;-78
2021/11/10 05:28:53;;;;;;;5.57;2.47;;;15.10;96.70;;;;;;5098138;28;20043;-78
2021/11/10 05:31:22;;;;;;;3.90;2.20;;;15.10;96.70;;;;;;5094070;28;20378;-79
2021/11/10 05:33:50;;;;;;;6.18;2.53;;;15.10;96.70;;;;;;5074812;28;20067;-78
2021/11/10 05:36:19;;;;;;;5.18;2.35;;;15.10;96.70;;;;;;5100592;28;20137;-78
2021/11/10 05:38:47;;;;;;;3.92;2.53;;;15.10;96.70;;;;;;5098267;27;20055;-78
2021/11/10 05:41:16;;;;;;;6.28;2.65;;;15.10;96.70;;;;;;5075828;28;20123;-78
2021/11/10 05:43:46;;;;;;;5.55;2.60;;;15.10;96.70;;;;;;5089305;28;20521;-78
2021/11/10 05:46:14;;;;;;;6.32;2.58;;;15.10;96.70;;;;;;5090571;28;20142;-78
2021/11/10 05:48:43;;;;;;;4.95;2.20;;;15.10;96.70;;;;;;5094612;28;20308;-78
2021/11/10 05:51:11;;;;;;;5.40;2.15;;;15.10;96.70;;;;;;5091380;28;20424;-80
2021/11/10 05:53:43;;;;;;;4.80;2.28;;;15.10;96.70;;;;;;5079900;28;20040;-79
2021/11/10 05:56:19;;;;;;;3.05;2.10;;;15.10;96.70;;;;;;5093994;28;20048;-79
2021/11/10 05:58:50;;;;;;;3.45;2.38;;;15.10;96.70;;;;;;5093858;28;20048;-80
2021/11/10 06:01:19;;;;;;;6.07;2.70;;;15.10;96.70;;;;;;5091633;28;20498;-79
2021/11/10 06:03:47;;;;;;;4.72;2.53;;;15.10;96.70;;;;;;5112105;27;20050;-79
2021/11/10 06:06:16;;;;;;;4.18;2.10;;;15.10;96.70;;;;;;5093224;28;20047;-80
2021/11/10 06:08:44;;;;;;;3.53;2.47;;;15.10;96.70;;;;;;5081409;28;20042;-79
2021/11/10 06:11:13;;;;;;;4.97;2.42;;;15.10;96.70;;;;;;5093775;28;20064;-79
2021/11/10 06:13:41;;;;;;;3.03;2.15;;;15.10;96.70;;;;;;5091923;28;20067;-79
2021/11/10 06:16:11;;;;;;;4.55;2.13;;;15.10;96.70;;;;;;5098146;28;20032;-79
2021/11/10 06:18:40;;;;;;;5.85;2.17;;;15.10;96.70;;;;;;5098856;28;20571;-80
2021/11/10 06:21:08;;;;;;;4.00;1.85;;;15.10;96.70;;;;;;5098520;28;20043;-79
2021/11/10 06:23:37;;;;;;;4.80;2.30;;;15.10;96.70;;;;;;5080698;28;20040;-80
2021/11/10 06:26:05;;;;;;;3.95;2.20;;;15.10;96.70;;;;;;5094684;28;20044;-80
2021/11/10 06:28:34;;;;;;;5.80;2.25;;;15.10;96.70;;;;;;5083111;28;20040;-79
2021/11/10 06:31:02;;;;;;;3.22;2.00;;;15.10;96.70;;;;;;5094559;28;20047;-79
2021/11/10 06:33:32;;;;;;;3.70;1.95;;;15.00;96.70;;;;;;5098304;28;20063;-79
2021/11/10 06:36:01;;;;;;;6.35;2.30;;;15.00;96.70;;;;;;5091428;28;20052;-79
2021/11/10 06:38:30;;;;;;;5.32;2.40;;;15.10;96.70;;;;;;5093086;28;20043;-80
2021/11/10 06:40:58;;;;;;;3.97;2.35;;;15.10;96.70;;;;;;5099022;28;20415;-79
2021/11/10 06:43:28;;;;;;;4.32;2.10;;;15.10;96.70;;;;;;5093883;28;20359;-80
2021/11/10 06:45:57;;;;;;;5.28;2.25;;;15.20;96.70;;;;;;5096185;28;20048;-79
2021/11/10 06:48:26;;;;;;;5.25;2.30;;;15.20;96.70;;;;;;5092785;28;20100;-79
2021/11/10 06:50:56;;;;;;;4.57;2.50;;;15.30;96.70;;;;;;5094550;28;20044;-81
2021/11/10 06:53:24;;;;;;;4.32;2.20;;;15.30;96.70;;;;;;5103413;28;20044;-81
2021/11/10 06:55:52;;;;;;;7.25;2.78;;;15.40;96.70;;;;;;5101453;28;20081;-80
2021/11/10 06:58:21;;;;;;;4.47;2.25;;;15.40;96.70;;;;;;5097695;28;20047;-82
2021/11/10 07:00:49;;;;;;;5.97;2.33;;;15.50;96.70;;;;;;5096817;28;20044;-83
2021/11/10 07:03:19;;;;;;;6.75;2.10;;;15.50;96.70;;;;;;5096624;28;20095;-81
2021/11/10 07:05:48;;;;;;;5.35;2.47;;;15.50;96.70;;;;;;5097866;28;20036;-81
2021/11/10 07:08:18;;;;;;;3.13;1.90;;;15.60;96.70;;;;;;5096326;28;20043;-82
2021/11/10 07:10:46;;;;;;;5.30;2.42;;;15.60;96.70;;;;;;5102143;28;20426;-81
2021/11/10 07:13:15;;;;;;;4.60;2.10;;;15.70;96.70;;;;;;5093072;28;20053;-78
2021/11/10 07:15:43;;;;;;;4.93;2.20;;;15.70;96.70;;;;;;5090959;28;20046;-79
2021/11/10 07:18:12;;;;;;;4.72;2.72;;;15.70;96.70;;;;;;5093590;28;20605;-78
2021/11/10 07:20:40;;;;;;;4.28;2.30;;;15.70;96.70;;;;;;5099397;28;20055;-79
2021/11/10 07:23:09;;;;;;;4.10;2.40;;;15.70;96.70;;;;;;5096537;27;20040;-82
2021/11/10 07:25:39;;;;;;;4.70;2.20;;;15.80;96.70;;;;;;5099032;28;20143;-78
2021/11/10 07:28:07;;;;;;;5.05;2.75;;;15.80;96.70;;;;;;5098674;27;20078;-77
2021/11/10 07:30:37;;;;;;;3.78;2.22;;;15.90;96.70;;;;;;5100783;28;20493;-78
2021/11/10 07:33:06;;;;;;;4.57;2.65;;;15.90;96.70;;;;;;5080106;28;20040;-78
2021/11/10 07:35:35;;;;;;;5.30;2.58;;;15.90;96.70;;;;;;5098101;28;20044;-77
2021/11/10 07:38:03;;;;;;;5.65;2.80;;;16.00;96.70;;;;;;5093636;28;20040;-77
2021/11/10 07:40:32;;;;;;;6.43;2.38;;;16.00;96.70;;;;;;5098497;28;20044;-77
2021/11/10 07:43:03;;;;;;;6.20;2.67;;;16.00;96.70;;;;;;5095248;28;20051;-78
2021/11/10 07:45:41;;;;;;;4.03;2.45;;;16.10;96.70;;;;;;5099953;28;20044;-78
2021/11/10 07:48:10;;;;;;;5.82;2.55;;;16.20;96.70;;;;;;5096219;28;20047;-77
2021/11/10 07:50:38;;;;;;;6.32;2.88;;;16.20;96.70;;;;;;5084656;28;20066;-78
2021/11/10 07:53:06;;;;;;;6.10;2.55;;;16.30;96.70;;;;;;5099608;28;20043;-78
2021/11/10 07:55:35;;;;;;;4.50;2.72;;;16.30;96.70;;;;;;5082679;28;20067;-78
2021/11/10 07:58:04;;;;;;;4.68;2.70;;;16.30;96.70;;;;;;5096316;28;20064;-77
2021/11/10 08:00:36;;;;;;;6.40;3.38;;;16.30;96.70;;;;;;5101467;27;20044;-77
2021/11/10 08:03:05;;;;;;;8.00;3.60;;;16.30;96.70;;;;;;5082606;27;20043;-78
2021/11/10 08:05:35;;;;;;;5.82;2.97;;;16.40;96.70;;;;;;5099792;28;20106;-78
2021/11/10 08:08:04;;;;;;;6.88;3.50;;;16.40;96.70;;;;;;5083751;28;20158;-78
2021/11/10 08:10:55;;;;;;;9.50;3.20;;;16.40;96.70;;;;;;5098110;27;20067;-76
2021/11/10 08:13:26;;;;;;;4.63;2.75;;;16.40;96.70;;;;;;5098016;28;20043;-77
2021/11/10 08:15:56;;;;;;;4.50;2.50;;;16.30;96.70;;;;;;5095420;28;20667;-77
2021/11/10 08:18:25;;;;;;;5.72;2.72;;;16.40;96.70;;;;;;5102305;27;20036;-78
2021/11/10 08:20:54;;;;;;;4.95;2.42;;;16.40;96.70;;;;;;5096422;27;20418;-77
2021/11/10 08:23:26;;;;;;;6.18;2.92;;;16.50;96.70;;;;;;5099431;28;20044;-78
2021/11/10 08:25:57;;;;;;;7.40;2.70;;;16.60;96.70;;;;;;5094514;28;20047;-77
2021/11/10 08:28:27;;;;;;;5.45;2.83;;;16.70;96.70;;;;;;5098648;28;20039;-77
2021/11/10 08:30:56;;;;;;;4.97;2.97;;;16.80;96.70;;;;;;5097767;27;20047;-77
2021/11/10 08:33:28;;;;;;;4.65;2.63;;;16.80;96.70;;;;;;5100776;27;20045;-79
2021/11/10 08:35:57;;;;;;;4.85;2.50;;;16.90;96.70;;;;;;5098342;28;20040;-76
2021/11/10 08:38:26;;;;;;;4.55;3.00;;;17.00;96.70;;;;;;5102205;27;20078;-77
2021/11/10 08:40:56;;;;;;;6.03;2.80;;;17.00;96.70;;;;;;5096486;27;20040;-77
2021/11/10 08:43:26;;;;;;;6.38;3.03;;;17.00;96.70;;;;;;5099624;27;20040;-77
2021/11/10 08:45:56;;;;;;;9.15;3.22;;;17.10;96.70;;;;;;5104410;27;20126;-77
2021/11/10 08:48:25;;;;;;;4.07;2.60;;;17.10;96.70;;;;;;5078162;28;20139;-77
2021/11/10 08:50:56;;;;;;;6.28;3.20;;;17.10;96.70;;;;;;5098590;27;20117;-77
2021/11/10 08:53:25;;;;;;;6.60;3.28;;;17.10;96.70;;;;;;5097301;28;20043;-77
2021/11/10 08:55:56;;;;;;;6.97;3.78;;;17.10;96.70;;;;;;5083575;28;20062;-77
2021/11/10 08:58:28;;;;;;;6.20;3.97;;;17.10;96.70;;;;;;5097282;27;20491;-78
2021/11/10 09:00:58;;;;;;;7.75;4.30;;;17.20;96.70;;;;;;5096342;27;20028;-78
2021/11/10 09:03:27;;;;;;;9.52;5.35;;;17.20;96.70;;;;;;5100244;28;20501;-78
2021/11/10 09:05:56;;;;;;;7.78;4.32;;;17.20;96.70;;;;;;5100811;28;20055;-78
2021/11/10 09:08:26;;;;;;;5.57;4.25;;;17.20;96.70;;;;;;5095644;28;20450;-77
2021/11/10 09:10:54;;;;;;;6.18;4.22;;;17.20;96.70;;;;;;5093328;28;20039;-77
2021/11/10 09:13:24;;;;;;;7.22;4.40;;;17.20;96.70;;;;;;5098342;28;20134;-76
2021/11/10 09:15:55;;;;;;;8.50;4.38;;;17.20;96.70;;;;;;5098215;28;20657;-76
2021/11/10 09:18:25;;;;;;;8.80;4.70;;;17.30;96.70;;;;;;5093035;27;20048;-76
2021/11/10 09:20:53;;;;;;;9.07;6.40;;;17.30;96.70;;;;;;5078854;28;20043;-76
2021/11/10 09:23:22;;;;;;;13.57;8.00;;;17.40;96.70;;;;;;5095723;28;20048;-76
2021/11/10 09:25:50;;;;;;;15.25;7.80;;;17.40;96.70;;;;;;5094306;28;20136;-76
2021/11/10 09:28:21;;;;;;;11.25;6.78;;;17.50;96.70;;;;;;5094829;28;20390;-76
2021/11/10 09:30:53;;;;;;;11.90;6.95;;;17.60;96.70;;;;;;5098975;27;20036;-76
2021/11/10 09:33:25;;;;;;;11.30;6.22;;;17.70;96.70;;;;;;5097875;28;20044;-76
2021/11/10 09:35:54;;;;;;;12.70;5.95;;;17.80;96.70;;;;;;5097837;28;20152;-76
2021/11/10 09:38:24;;;;;;;11.05;5.45;;;17.90;96.70;;;;;;5096235;28;20055;-76
2021/11/10 09:40:58;;;;;;;6.68;3.92;;;18.00;96.70;;;;;;5093737;27;20054;-77
2021/11/10 09:43:31;;;;;;;6.13;4.13;;;18.20;96.70;;;;;;5096546;28;20047;-77
2021/11/10 09:45:59;;;;;;;6.70;3.65;;;18.40;96.70;;;;;;5096947;28;20162;-78
2021/11/10 09:48:29;;;;;;;4.55;3.05;;;18.60;96.70;;;;;;5094882;28;20036;-77
2021/11/10 09:50:58;;;;;;;5.38;2.70;;;18.60;96.70;;;;;;5097977;27;20066;-77
2021/11/10 09:53:31;;;;;;;6.22;2.78;;;18.80;96.70;;;;;;5099674;28;20047;-78
2021/11/10 09:55:59;;;;;;;7.38;3.25;;;19.00;96.70;;;;;;5097291;27;20035;-77
2021/11/10 09:58:28;;;;;;;7.43;3.38;;;19.00;96.70;;;;;;5096027;28;20110;-78
2021/11/10 10:00:59;;;;;;;6.53;3.38;;;19.20;96.70;;;;;;5099391;28;20504;-77
2021/11/10 10:03:29;;;;;;;6.28;2.97;;;19.30;96.70;;;;;;5098169;28;20028;-77
2021/11/10 10:05:59;;;;;;;5.15;3.03;;;19.30;96.70;;;;;;5091723;28;20044;-81
2021/11/10 10:08:27;;;;;;;6.35;3.20;;;19.20;96.70;;;;;;5093177;28;20038;-80
2021/11/10 10:10:55;;;;;;;5.10;3.05;;;19.30;96.70;;;;;;5096632;28;20069;-78
2021/11/10 10:13:25;;;;;;;4.43;2.88;;;19.50;96.70;;;;;;5098033;28;20043;-78
2021/11/10 10:15:53;;;;;;;4.18;2.80;;;19.50;96.70;;;;;;5094786;28;21209;-79
2021/11/10 10:18:25;;;;;;;4.63;2.92;;;19.50;96.70;;;;;;5091534;28;20587;-78
2021/11/10 10:20:56;;;;;;;6.93;3.65;;;19.50;96.70;;;;;;5095035;28;20072;-78
2021/11/10 10:23:29;;;;;;;6.45;3.65;;;19.40;96.70;;;;;;5097639;28;20801;-78
2021/11/10 10:25:59;;;;;;;5.35;3.20;;;19.40;96.70;;;;;;5093036;28;20051;-78
2021/11/10 10:28:29;;;;;;;5.15;3.10;;;19.50;96.70;;;;;;5100392;28;20039;-78
2021/11/10 10:31:00;;;;;;;5.30;3.50;;;19.70;96.70;;;;;;5089746;28;20126;-78
2021/11/10 10:33:32;;;;;;;4.82;2.88;;;19.90;96.70;;;;;;5094190;28;20574;-78
2021/11/10 10:36:06;;;;;;;4.80;3.13;;;20.00;96.70;;;;;;5079217;28;20055;-78
2021/11/10 10:38:38;;;;;;;6.85;3.28;;;20.20;96.70;;;;;;5093022;28;20036;-77
2021/11/10 10:41:08;;;;;;;7.32;3.22;;;20.00;96.70;;;;;;5096805;28;20370;-78
2021/11/10 10:43:42;;;;;;;5.45;3.20;;;19.70;96.70;;;;;;5096924;28;20126;-79
2021/11/10 10:46:11;;;;;;;7.40;3.72;;;19.60;96.70;;;;;;5092928;28;20050;-79
2021/11/10 10:48:39;;;;;;;5.75;3.30;;;19.50;96.70;;;;;;5094083;28;20135;-79
2021/11/10 10:51:12;;;;;;;6.15;3.60;;;19.50;96.70;;;;;;5099541;28;20044;-79
2021/11/10 10:53:43;;;;;;;6.13;3.20;;;19.70;96.70;;;;;;5087214;28;20036;-79
2021/11/10 10:56:26;;;;;;;6.10;3.42;;;19.80;96.70;;;;;;5098322;28;20131;-78
2021/11/10 10:58:58;;;;;;;6.20;3.65;;;19.80;96.70;;;;;;5096496;28;20118;-79
2021/11/10 11:01:29;;;;;;;7.00;3.63;;;19.70;96.70;;;;;;5099769;28;20036;-79
2021/11/10 11:04:01;;;;;;;5.53;3.03;;;19.60;96.70;;;;;;5074967;28;20409;-79
2021/11/10 11:06:37;;;;;;;4.28;2.90;;;19.60;96.70;;;;;;5102599;27;20047;-78
2021/11/10 11:09:19;;;;;;;4.75;2.75;;;19.70;96.70;;;;;;5099547;28;20485;-78
2021/11/10 11:11:59;;;;;;;4.95;2.97;;;19.90;96.70;;;;;;5083665;28;20452;-78
2021/11/10 11:17:29;;;;;;;5.22;3.13;;;20.00;96.70;;;;;;5103047;28;20465;-78
2021/11/10 11:20:00;;;;;;;8.90;3.20;;;20.20;96.70;;;;;;5102059;27;20052;-78
2021/11/10 11:22:32;;;;;;;6.13;3.10;;;20.30;96.70;;;;;;5096245;28;20093;-78
2021/11/10 11:25:10;;;;;;;6.22;3.05;;;20.20;96.70;;;;;;5102353;27;20112;-77
2021/11/10 11:27:39;;;;;;;4.95;3.00;;;20.20;96.70;;;;;;5113835;27;20528;-77
2021/11/10 11:30:11;;;;;;;5.93;3.47;;;20.20;96.70;;;;;;5091977;27;20044;-78
2021/11/10 11:32:41;;;;;;;4.82;2.95;;;20.20;96.70;;;;;;5095629;27;20051;-78
2021/11/10 11:35:14;;;;;;;5.90;3.00;;;20.20;96.70;;;;;;5099325;28;20040;-78
2021/11/10 11:37:44;;;;;;;5.82;2.67;;;20.30;96.70;;;;;;5098625;28;20055;-78
2021/11/10 11:40:19;;;;;;;4.70;2.83;;;20.30;96.70;;;;;;5101529;28;20561;-78
2021/11/10 11:42:48;;;;;;;6.35;2.92;;;20.30;96.70;;;;;;5090479;28;20556;-77
2021/11/10 11:45:18;;;;;;;3.88;2.80;;;20.30;96.70;;;;;;5094129;27;20433;-78
2021/11/10 11:47:46;;;;;;;4.28;2.83;;;20.40;96.70;;;;;;5096123;27;20062;-77
2021/11/10 11:50:14;;;;;;;4.80;3.17;;;20.40;96.70;;;;;;5110491;27;20577;-76
2021/11/10 11:52:45;;;;;;;4.28;2.75;;;20.30;96.70;;;;;;5092419;28;20048;-77
2021/11/10 11:55:21;;;;;;;6.20;3.33;;;20.30;96.70;;;;;;5102878;27;20040;-77
2021/11/10 11:58:00;;;;;;;4.15;2.75;;;20.20;96.70;;;;;;5094041;28;20501;-77
2021/11/10 12:00:30;;;;;;;6.30;2.85;;;20.10;96.70;;;;;;5096222;28;20075;-78
2021/11/10 12:02:59;;;;;;;3.95;2.83;;;20.00;96.70;;;;;;5100180;27;20138;-78
2021/11/10 12:05:28;;;;;;;4.78;3.03;;;20.00;96.70;;;;;;5101869;27;20044;-78
2021/11/10 12:07:58;;;;;;;4.95;3.00;;;20.10;96.70;;;;;;5096085;28;20114;-78
2021/11/10 12:10:47;;;;;;;5.40;2.92;;;20.10;96.70;;;;;;5098321;28;20411;-78
2021/11/10 12:13:23;;;;;;;4.25;2.80;;;20.30;96.70;;;;;;5080641;28;20138;-78
2021/11/10 12:16:18;;;;;;;4.80;2.80;;;20.60;96.70;;;;;;5097321;28;20054;-78
2021/11/10 12:18:58;;;;;;;3.97;2.92;;;20.90;96.70;;;;;;5101305;27;20048;-78
2021/11/10 12:21:37;;;;;;;4.85;3.00;;;20.80;96.70;;;;;;5097535;27;20064;-78
2021/11/10 12:24:14;;;;;;;4.32;3.40;;;20.90;96.70;;;;;;5100556;28;20128;-77
2021/11/10 12:27:09;;;;;;;4.65;2.60;;;21.10;96.70;;;;;;5096512;28;20100;-78
2021/11/10 12:29:58;;;;;;;4.82;2.60;;;21.20;96.70;;;;;;5096764;27;20170;-79
2021/11/10 12:32:48;;;;;;;5.20;2.88;;;21.40;96.70;;;;;;5091348;28;20120;-77
2021/11/10 12:35:33;;;;;;;4.95;2.80;;;21.60;96.70;;;;;;5096298;28;20048;-79
2021/11/10 12:38:03;;;;;;;5.68;3.08;;;21.60;96.70;;;;;;5098411;28;20121;-79
2021/11/10 12:40:36;;;;;;;4.20;2.47;;;21.80;96.70;;;;;;5096913;27;20058;-78
2021/11/10 12:43:13;;;;;;;4.63;2.97;;;21.80;96.70;;;;;;5108419;27;20048;-80
2021/11/10 12:45:53;;;;;;;5.40;3.10;;;21.90;96.70;;;;;;5078722;28;20493;-78
2021/11/10 12:48:30;;;;;;;6.30;2.88;;;22.10;96.70;;;;;;5099705;28;20075;-79
2021/11/10 12:51:17;;;;;;;5.05;2.72;;;22.30;96.70;;;;;;5098840;28;20467;-78
2021/11/10 12:53:47;;;;;;;5.13;2.20;;;22.40;96.70;;;;;;5091585;28;20039;-80
2021/11/10 12:56:38;;;;;;;4.63;2.55;;;22.40;96.70;;;;;;5100141;27;20127;-79
2021/11/10 12:59:09;;;;;;;5.82;2.83;;;22.40;96.70;;;;;;5100588;28;20493;-79
2021/11/10 13:01:37;;;;;;;4.90;2.70;;;22.30;96.70;;;;;;5119015;27;20706;-78
2021/11/10 13:04:05;;;;;;;5.20;2.88;;;22.20;96.70;;;;;;5095943;27;20040;-79
2021/11/10 13:06:38;;;;;;;5.80;3.08;;;22.10;96.70;;;;;;5095556;28;20421;-79
2021/11/10 13:09:13;;;;;;;3.72;2.67;;;22.00;96.70;;;;;;5101300;27;20450;-78
2021/11/10 13:11:45;;;;;;;3.60;2.88;;;21.90;96.70;;;;;;5098758;27;20051;-78